sensor_id;sensor_type;location;lat;lon;timestamp;temperature;humidity
76996;DHT22;65929;49.062;10.338;2023-12-29T00:00:28;7.60;81.70
76996;DHT22;65929;49.062;10.338;2023-12-29T00:01:29;7.60;81.60
76996;DHT22;65929;49.062;10.338;2023-12-29T00:02:31;7.60;81.50
76996;DHT22;65929;49.062;10.338;2023-12-29T00:03:31;7.60;81.50
76996;DHT22;65929;49.062;10.338;2023-12-29T00:04:32;7.70;81.30
76996;DHT22;65929;49.062;10.338;2023-12-29T00:05:33;7.80;81.20
76996;DHT22;65929;49.062;10.338;2023-12-29T00:06:37;7.80;81.10
76996;DHT22;65929;49.062;10.338;2023-12-29T00:07:38;7.80;81.00
76996;DHT22;65929;49.062;10.338;2023-12-29T00:08:39;7.80;81.10
76996;DHT22;65929;49.062;10.338;2023-12-29T00:09:40;7.80;81.00
76996;DHT22;65929;49.062;10.338;2023-12-29T00:10:41;7.80;81.30
76996;DHT22;65929;49.062;10.338;2023-12-29T00:11:42;7.80;81.40
76996;DHT22;65929;49.062;10.338;2023-12-29T00:12:43;7.80;81.40
76996;DHT22;65929;49.062;10.338;2023-12-29T00:13:47;7.70;81.60
76996;DHT22;65929;49.062;10.338;2023-12-29T00:14:49;7.70;81.60
76996;DHT22;65929;49.062;10.338;2023-12-29T00:15:52;7.70;81.60
76996;DHT22;65929;49.062;10.338;2023-12-29T00:16:53;7.70;81.60
76996;DHT22;65929;49.062;10.338;2023-12-29T00:17:57;7.70;81.50
76996;DHT22;65929;49.062;10.338;2023-12-29T00:18:58;7.70;81.60
76996;DHT22;65929;49.062;10.338;2023-12-29T00:19:59;7.70;81.70
76996;DHT22;65929;49.062;10.338;2023-12-29T00:21:00;7.70;81.80
76996;DHT22;65929;49.062;10.338;2023-12-29T00:22:01;7.70;81.70
76996;DHT22;65929;49.062;10.338;2023-12-29T00:23:03;7.70;81.60
76996;DHT22;65929;49.062;10.338;2023-12-29T00:24:05;7.80;81.60
76996;DHT22;65929;49.062;10.338;2023-12-29T00:25:06;7.80;81.50
76996;DHT22;65929;49.062;10.338;2023-12-29T00:26:09;7.80;81.50
76996;DHT22;65929;49.062;10.338;2023-12-29T00:27:10;7.80;81.30
76996;DHT22;65929;49.062;10.338;2023-12-29T00:28:11;7.80;81.40
76996;DHT22;65929;49.062;10.338;2023-12-29T00:29:12;7.80;81.40
76996;DHT22;65929;49.062;10.338;2023-12-29T00:30:15;7.80;81.20
76996;DHT22;65929;49.062;10.338;2023-12-29T00:39:03;7.90;81.10
76996;DHT22;65929;49.062;10.338;2023-12-29T00:40:06;7.80;81.00
76996;DHT22;65929;49.062;10.338;2023-12-29T00:41:08;7.90;81.00
76996;DHT22;65929;49.062;10.338;2023-12-29T00:42:09;7.90;80.90
76996;DHT22;65929;49.062;10.338;2023-12-29T00:43:10;7.90;80.70
76996;DHT22;65929;49.062;10.338;2023-12-29T00:44:11;7.90;80.80
76996;DHT22;65929;49.062;10.338;2023-12-29T00:45:14;7.90;80.80
76996;DHT22;65929;49.062;10.338;2023-12-29T00:46:15;7.90;80.80
76996;DHT22;65929;49.062;10.338;2023-12-29T00:47:19;7.80;80.80
76996;DHT22;65929;49.062;10.338;2023-12-29T00:48:20;7.90;80.80
76996;DHT22;65929;49.062;10.338;2023-12-29T00:49:21;7.90;80.80
76996;DHT22;65929;49.062;10.338;2023-12-29T00:50:22;7.90;80.70
76996;DHT22;65929;49.062;10.338;2023-12-29T00:51:23;7.90;80.70
76996;DHT22;65929;49.062;10.338;2023-12-29T00:52:24;8.00;80.90
76996;DHT22;65929;49.062;10.338;2023-12-29T00:53:25;8.00;80.60
76996;DHT22;65929;49.062;10.338;2023-12-29T00:54:26;8.00;80.40
76996;DHT22;65929;49.062;10.338;2023-12-29T00:55:27;8.10;80.30
76996;DHT22;65929;49.062;10.338;2023-12-29T00:56:28;8.10;80.00
76996;DHT22;65929;49.062;10.338;2023-12-29T00:57:29;8.20;79.80
76996;DHT22;65929;49.062;10.338;2023-12-29T00:58:30;8.20;79.70
76996;DHT22;65929;49.062;10.338;2023-12-29T00:59:31;8.20;79.20
76996;DHT22;65929;49.062;10.338;2023-12-29T01:00:33;8.30;79.50
76996;DHT22;65929;49.062;10.338;2023-12-29T01:01:34;8.30;79.50
76996;DHT22;65929;49.062;10.338;2023-12-29T01:02:35;8.20;79.50
76996;DHT22;65929;49.062;10.338;2023-12-29T01:03:36;8.20;79.40
76996;DHT22;65929;49.062;10.338;2023-12-29T01:04:37;8.30;79.20
76996;DHT22;65929;49.062;10.338;2023-12-29T01:05:39;8.30;79.10
76996;DHT22;65929;49.062;10.338;2023-12-29T01:06:40;8.30;79.00
76996;DHT22;65929;49.062;10.338;2023-12-29T01:07:44;8.30;78.90
76996;DHT22;65929;49.062;10.338;2023-12-29T01:08:45;8.30;79.00
76996;DHT22;65929;49.062;10.338;2023-12-29T01:09:46;8.30;78.90
76996;DHT22;65929;49.062;10.338;2023-12-29T01:10:46;8.30;79.10
76996;DHT22;65929;49.062;10.338;2023-12-29T01:11:47;8.20;78.90
76996;DHT22;65929;49.062;10.338;2023-12-29T01:12:48;8.30;79.00
76996;DHT22;65929;49.062;10.338;2023-12-29T01:13:49;8.30;78.80
76996;DHT22;65929;49.062;10.338;2023-12-29T01:14:52;8.30;79.00
76996;DHT22;65929;49.062;10.338;2023-12-29T01:15:54;8.30;78.70
76996;DHT22;65929;49.062;10.338;2023-12-29T01:16:55;8.30;78.80
76996;DHT22;65929;49.062;10.338;2023-12-29T01:17:57;8.30;79.00
76996;DHT22;65929;49.062;10.338;2023-12-29T01:18:58;8.30;78.60
76996;DHT22;65929;49.062;10.338;2023-12-29T01:19:59;8.30;78.90
76996;DHT22;65929;49.062;10.338;2023-12-29T01:21:05;8.30;78.60
76996;DHT22;65929;49.062;10.338;2023-12-29T01:22:06;8.30;78.70
76996;DHT22;65929;49.062;10.338;2023-12-29T01:24:26;8.30;78.70
76996;DHT22;65929;49.062;10.338;2023-12-29T01:25:27;8.30;78.30
76996;DHT22;65929;49.062;10.338;2023-12-29T01:26:28;8.40;78.00
76996;DHT22;65929;49.062;10.338;2023-12-29T01:27:29;8.40;78.20
76996;DHT22;65929;49.062;10.338;2023-12-29T01:28:30;8.40;78.20
76996;DHT22;65929;49.062;10.338;2023-12-29T01:29:32;8.50;77.90
76996;DHT22;65929;49.062;10.338;2023-12-29T01:30:34;8.50;77.70
76996;DHT22;65929;49.062;10.338;2023-12-29T01:31:36;8.50;77.60
76996;DHT22;65929;49.062;10.338;2023-12-29T01:32:37;8.50;77.60
76996;DHT22;65929;49.062;10.338;2023-12-29T01:33:38;8.50;77.50
76996;DHT22;65929;49.062;10.338;2023-12-29T01:34:39;8.50;77.50
76996;DHT22;65929;49.062;10.338;2023-12-29T01:35:40;8.60;77.20
76996;DHT22;65929;49.062;10.338;2023-12-29T01:36:41;8.60;77.50
76996;DHT22;65929;49.062;10.338;2023-12-29T01:37:42;8.60;77.20
76996;DHT22;65929;49.062;10.338;2023-12-29T01:38:43;8.60;77.00
76996;DHT22;65929;49.062;10.338;2023-12-29T01:39:44;8.60;77.20
76996;DHT22;65929;49.062;10.338;2023-12-29T01:40:46;8.60;77.00
76996;DHT22;65929;49.062;10.338;2023-12-29T01:41:47;8.60;77.20
76996;DHT22;65929;49.062;10.338;2023-12-29T01:42:48;8.60;77.50
76996;DHT22;65929;49.062;10.338;2023-12-29T01:44:18;8.60;77.60
76996;DHT22;65929;49.062;10.338;2023-12-29T01:45:21;8.60;77.40
76996;DHT22;65929;49.062;10.338;2023-12-29T01:46:23;8.60;77.90
76996;DHT22;65929;49.062;10.338;2023-12-29T01:47:36;8.60;77.70
76996;DHT22;65929;49.062;10.338;2023-12-29T01:48:37;8.60;77.70
76996;DHT22;65929;49.062;10.338;2023-12-29T01:49:38;8.60;77.90
76996;DHT22;65929;49.062;10.338;2023-12-29T01:50:39;8.60;77.90
76996;DHT22;65929;49.062;10.338;2023-12-29T01:51:45;8.60;77.40
76996;DHT22;65929;49.062;10.338;2023-12-29T01:52:49;8.60;77.40
76996;DHT22;65929;49.062;10.338;2023-12-29T01:53:51;8.60;77.40
76996;DHT22;65929;49.062;10.338;2023-12-29T01:54:53;8.60;77.10
76996;DHT22;65929;49.062;10.338;2023-12-29T01:55:55;8.60;77.30
76996;DHT22;65929;49.062;10.338;2023-12-29T01:56:57;8.60;77.10
76996;DHT22;65929;49.062;10.338;2023-12-29T01:58:00;8.60;77.20
76996;DHT22;65929;49.062;10.338;2023-12-29T01:59:02;8.60;77.20
76996;DHT22;65929;49.062;10.338;2023-12-29T02:00:05;8.60;77.50
76996;DHT22;65929;49.062;10.338;2023-12-29T02:01:07;8.60;77.80
76996;DHT22;65929;49.062;10.338;2023-12-29T02:02:08;8.60;77.40
76996;DHT22;65929;49.062;10.338;2023-12-29T02:03:11;8.60;77.50
76996;DHT22;65929;49.062;10.338;2023-12-29T02:04:13;8.60;77.40
76996;DHT22;65929;49.062;10.338;2023-12-29T02:05:15;8.60;77.40
76996;DHT22;65929;49.062;10.338;2023-12-29T02:06:18;8.60;77.20
76996;DHT22;65929;49.062;10.338;2023-12-29T02:07:20;8.60;77.40
76996;DHT22;65929;49.062;10.338;2023-12-29T02:08:21;8.50;77.50
76996;DHT22;65929;49.062;10.338;2023-12-29T02:09:23;8.50;77.50
76996;DHT22;65929;49.062;10.338;2023-12-29T02:10:24;8.50;77.70
76996;DHT22;65929;49.062;10.338;2023-12-29T02:11:25;8.40;77.80
76996;DHT22;65929;49.062;10.338;2023-12-29T02:12:26;8.40;78.00
76996;DHT22;65929;49.062;10.338;2023-12-29T02:13:27;8.30;77.80
76996;DHT22;65929;49.062;10.338;2023-12-29T02:14:28;8.30;78.00
76996;DHT22;65929;49.062;10.338;2023-12-29T02:15:29;8.30;77.80
76996;DHT22;65929;49.062;10.338;2023-12-29T02:16:44;8.30;77.90
76996;DHT22;65929;49.062;10.338;2023-12-29T02:17:52;8.30;77.80
76996;DHT22;65929;49.062;10.338;2023-12-29T02:18:59;8.30;77.80
76996;DHT22;65929;49.062;10.338;2023-12-29T02:20:03;8.30;77.60
76996;DHT22;65929;49.062;10.338;2023-12-29T02:21:05;8.40;77.50
76996;DHT22;65929;49.062;10.338;2023-12-29T02:22:06;8.40;77.50
76996;DHT22;65929;49.062;10.338;2023-12-29T02:23:08;8.40;77.20
76996;DHT22;65929;49.062;10.338;2023-12-29T02:24:10;8.50;77.10
76996;DHT22;65929;49.062;10.338;2023-12-29T02:25:12;8.50;76.90
76996;DHT22;65929;49.062;10.338;2023-12-29T02:26:16;8.50;76.60
76996;DHT22;65929;49.062;10.338;2023-12-29T02:27:23;8.50;76.50
76996;DHT22;65929;49.062;10.338;2023-12-29T02:28:27;8.50;76.50
76996;DHT22;65929;49.062;10.338;2023-12-29T02:29:29;8.50;76.40
76996;DHT22;65929;49.062;10.338;2023-12-29T02:30:35;8.50;76.50
76996;DHT22;65929;49.062;10.338;2023-12-29T02:31:39;8.50;76.30
76996;DHT22;65929;49.062;10.338;2023-12-29T02:32:46;8.50;76.50
76996;DHT22;65929;49.062;10.338;2023-12-29T02:33:49;8.50;76.40
76996;DHT22;65929;49.062;10.338;2023-12-29T02:34:52;8.50;76.40
76996;DHT22;65929;49.062;10.338;2023-12-29T02:35:56;8.50;76.50
76996;DHT22;65929;49.062;10.338;2023-12-29T02:37:00;8.50;76.40
76996;DHT22;65929;49.062;10.338;2023-12-29T02:38:02;8.50;76.40
76996;DHT22;65929;49.062;10.338;2023-12-29T02:39:03;8.50;76.40
76996;DHT22;65929;49.062;10.338;2023-12-29T02:40:05;8.50;76.30
76996;DHT22;65929;49.062;10.338;2023-12-29T02:41:08;8.50;76.40
76996;DHT22;65929;49.062;10.338;2023-12-29T02:42:09;8.50;76.20
76996;DHT22;65929;49.062;10.338;2023-12-29T02:43:10;8.60;75.90
76996;DHT22;65929;49.062;10.338;2023-12-29T02:44:11;8.60;76.10
76996;DHT22;65929;49.062;10.338;2023-12-29T02:45:12;8.60;76.00
76996;DHT22;65929;49.062;10.338;2023-12-29T02:46:13;8.60;75.80
76996;DHT22;65929;49.062;10.338;2023-12-29T02:47:14;8.60;76.10
76996;DHT22;65929;49.062;10.338;2023-12-29T02:48:17;8.50;76.30
76996;DHT22;65929;49.062;10.338;2023-12-29T02:49:18;8.50;76.50
76996;DHT22;65929;49.062;10.338;2023-12-29T02:50:19;8.50;76.70
76996;DHT22;65929;49.062;10.338;2023-12-29T02:51:20;8.50;76.60
76996;DHT22;65929;49.062;10.338;2023-12-29T02:52:21;8.50;75.80
76996;DHT22;65929;49.062;10.338;2023-12-29T02:53:22;8.60;76.20
76996;DHT22;65929;49.062;10.338;2023-12-29T02:54:23;8.60;76.40
76996;DHT22;65929;49.062;10.338;2023-12-29T02:55:24;8.60;75.90
76996;DHT22;65929;49.062;10.338;2023-12-29T02:56:26;8.60;76.10
76996;DHT22;65929;49.062;10.338;2023-12-29T02:57:27;8.60;76.10
76996;DHT22;65929;49.062;10.338;2023-12-29T02:58:27;8.60;76.10
76996;DHT22;65929;49.062;10.338;2023-12-29T02:59:28;8.60;76.10
76996;DHT22;65929;49.062;10.338;2023-12-29T03:00:29;8.50;75.90
76996;DHT22;65929;49.062;10.338;2023-12-29T03:01:30;8.50;76.10
76996;DHT22;65929;49.062;10.338;2023-12-29T03:02:31;8.50;76.00
76996;DHT22;65929;49.062;10.338;2023-12-29T03:03:33;8.50;75.90
76996;DHT22;65929;49.062;10.338;2023-12-29T03:04:34;8.50;75.90
76996;DHT22;65929;49.062;10.338;2023-12-29T03:05:35;8.50;76.10
76996;DHT22;65929;49.062;10.338;2023-12-29T03:06:35;8.50;76.00
76996;DHT22;65929;49.062;10.338;2023-12-29T03:07:36;8.40;75.90
76996;DHT22;65929;49.062;10.338;2023-12-29T03:08:37;8.40;76.20
76996;DHT22;65929;49.062;10.338;2023-12-29T03:09:38;8.40;76.20
76996;DHT22;65929;49.062;10.338;2023-12-29T03:10:39;8.40;76.40
76996;DHT22;65929;49.062;10.338;2023-12-29T03:11:41;8.40;76.50
76996;DHT22;65929;49.062;10.338;2023-12-29T03:12:42;8.40;76.30
76996;DHT22;65929;49.062;10.338;2023-12-29T03:13:46;8.40;76.50
76996;DHT22;65929;49.062;10.338;2023-12-29T03:14:47;8.40;76.80
76996;DHT22;65929;49.062;10.338;2023-12-29T03:15:48;8.30;76.60
76996;DHT22;65929;49.062;10.338;2023-12-29T03:16:49;8.40;76.40
76996;DHT22;65929;49.062;10.338;2023-12-29T03:17:49;8.40;76.50
76996;DHT22;65929;49.062;10.338;2023-12-29T03:18:50;8.40;76.50
76996;DHT22;65929;49.062;10.338;2023-12-29T03:19:52;8.40;76.50
76996;DHT22;65929;49.062;10.338;2023-12-29T03:20:53;8.40;76.80
76996;DHT22;65929;49.062;10.338;2023-12-29T03:21:54;8.40;76.60
76996;DHT22;65929;49.062;10.338;2023-12-29T03:22:54;8.40;76.70
76996;DHT22;65929;49.062;10.338;2023-12-29T03:23:56;8.40;76.50
76996;DHT22;65929;49.062;10.338;2023-12-29T03:24:57;8.40;76.60
76996;DHT22;65929;49.062;10.338;2023-12-29T03:25:58;8.50;76.40
76996;DHT22;65929;49.062;10.338;2023-12-29T03:27:00;8.50;76.40
76996;DHT22;65929;49.062;10.338;2023-12-29T03:28:01;8.50;76.10
76996;DHT22;65929;49.062;10.338;2023-12-29T03:29:02;8.50;76.40
76996;DHT22;65929;49.062;10.338;2023-12-29T03:30:04;8.50;76.40
76996;DHT22;65929;49.062;10.338;2023-12-29T03:31:05;8.50;76.50
76996;DHT22;65929;49.062;10.338;2023-12-29T03:32:07;8.50;76.50
76996;DHT22;65929;49.062;10.338;2023-12-29T03:33:08;8.50;76.80
76996;DHT22;65929;49.062;10.338;2023-12-29T03:34:09;8.50;76.60
76996;DHT22;65929;49.062;10.338;2023-12-29T03:35:10;8.50;76.40
76996;DHT22;65929;49.062;10.338;2023-12-29T03:36:11;8.50;76.50
76996;DHT22;65929;49.062;10.338;2023-12-29T03:37:12;8.50;76.50
76996;DHT22;65929;49.062;10.338;2023-12-29T03:38:13;8.50;76.40
76996;DHT22;65929;49.062;10.338;2023-12-29T03:39:15;8.50;76.50
76996;DHT22;65929;49.062;10.338;2023-12-29T03:40:16;8.50;76.30
76996;DHT22;65929;49.062;10.338;2023-12-29T03:41:17;8.50;76.60
76996;DHT22;65929;49.062;10.338;2023-12-29T03:42:19;8.50;76.40
76996;DHT22;65929;49.062;10.338;2023-12-29T03:43:20;8.50;76.40
76996;DHT22;65929;49.062;10.338;2023-12-29T03:44:21;8.50;76.40
76996;DHT22;65929;49.062;10.338;2023-12-29T03:45:22;8.50;76.40
76996;DHT22;65929;49.062;10.338;2023-12-29T03:46:23;8.50;76.50
76996;DHT22;65929;49.062;10.338;2023-12-29T03:47:24;8.50;76.60
76996;DHT22;65929;49.062;10.338;2023-12-29T03:48:25;8.50;76.60
76996;DHT22;65929;49.062;10.338;2023-12-29T03:49:25;8.50;76.80
76996;DHT22;65929;49.062;10.338;2023-12-29T03:50:26;8.50;76.80
76996;DHT22;65929;49.062;10.338;2023-12-29T03:51:27;8.50;76.60
76996;DHT22;65929;49.062;10.338;2023-12-29T03:52:28;8.50;76.50
76996;DHT22;65929;49.062;10.338;2023-12-29T03:53:29;8.50;76.40
76996;DHT22;65929;49.062;10.338;2023-12-29T03:54:30;8.50;76.40
76996;DHT22;65929;49.062;10.338;2023-12-29T03:55:31;8.50;76.40
76996;DHT22;65929;49.062;10.338;2023-12-29T03:56:32;8.50;76.50
76996;DHT22;65929;49.062;10.338;2023-12-29T03:57:34;8.50;76.50
76996;DHT22;65929;49.062;10.338;2023-12-29T03:58:35;8.50;76.50
76996;DHT22;65929;49.062;10.338;2023-12-29T03:59:36;8.50;76.50
76996;DHT22;65929;49.062;10.338;2023-12-29T04:00:38;8.50;76.60
76996;DHT22;65929;49.062;10.338;2023-12-29T04:01:42;8.50;76.70
76996;DHT22;65929;49.062;10.338;2023-12-29T04:02:43;8.50;76.30
76996;DHT22;65929;49.062;10.338;2023-12-29T04:03:44;8.50;76.60
76996;DHT22;65929;49.062;10.338;2023-12-29T04:04:45;8.50;76.50
76996;DHT22;65929;49.062;10.338;2023-12-29T04:05:46;8.50;76.80
76996;DHT22;65929;49.062;10.338;2023-12-29T04:06:47;8.50;76.80
76996;DHT22;65929;49.062;10.338;2023-12-29T04:07:48;8.50;76.70
76996;DHT22;65929;49.062;10.338;2023-12-29T04:08:49;8.50;76.90
76996;DHT22;65929;49.062;10.338;2023-12-29T04:09:49;8.50;76.80
76996;DHT22;65929;49.062;10.338;2023-12-29T04:10:50;8.50;76.50
76996;DHT22;65929;49.062;10.338;2023-12-29T04:11:51;8.50;76.50
76996;DHT22;65929;49.062;10.338;2023-12-29T04:12:53;8.50;76.70
76996;DHT22;65929;49.062;10.338;2023-12-29T04:13:55;8.50;76.50
76996;DHT22;65929;49.062;10.338;2023-12-29T04:14:56;8.50;76.50
76996;DHT22;65929;49.062;10.338;2023-12-29T04:15:57;8.50;76.50
76996;DHT22;65929;49.062;10.338;2023-12-29T04:16:58;8.50;77.10
76996;DHT22;65929;49.062;10.338;2023-12-29T04:18:00;8.50;76.90
76996;DHT22;65929;49.062;10.338;2023-12-29T04:19:01;8.40;77.00
76996;DHT22;65929;49.062;10.338;2023-12-29T04:20:03;8.40;76.90
76996;DHT22;65929;49.062;10.338;2023-12-29T04:21:04;8.40;77.00
76996;DHT22;65929;49.062;10.338;2023-12-29T04:22:05;8.40;77.10
76996;DHT22;65929;49.062;10.338;2023-12-29T04:23:07;8.40;77.10
76996;DHT22;65929;49.062;10.338;2023-12-29T04:24:08;8.30;77.20
76996;DHT22;65929;49.062;10.338;2023-12-29T04:25:09;8.30;77.20
76996;DHT22;65929;49.062;10.338;2023-12-29T04:26:10;8.30;77.30
76996;DHT22;65929;49.062;10.338;2023-12-29T04:27:11;8.40;77.40
76996;DHT22;65929;49.062;10.338;2023-12-29T04:28:13;8.30;77.70
76996;DHT22;65929;49.062;10.338;2023-12-29T04:29:14;8.30;77.70
76996;DHT22;65929;49.062;10.338;2023-12-29T04:30:15;8.30;77.70
76996;DHT22;65929;49.062;10.338;2023-12-29T04:31:16;8.30;77.80
76996;DHT22;65929;49.062;10.338;2023-12-29T04:32:17;8.30;78.10
76996;DHT22;65929;49.062;10.338;2023-12-29T04:33:18;8.30;78.10
76996;DHT22;65929;49.062;10.338;2023-12-29T04:34:18;8.30;78.40
76996;DHT22;65929;49.062;10.338;2023-12-29T04:35:19;8.30;78.50
76996;DHT22;65929;49.062;10.338;2023-12-29T04:36:20;8.30;78.40
76996;DHT22;65929;49.062;10.338;2023-12-29T04:37:21;8.30;78.50
76996;DHT22;65929;49.062;10.338;2023-12-29T04:38:22;8.30;78.50
76996;DHT22;65929;49.062;10.338;2023-12-29T04:39:23;8.30;78.40
76996;DHT22;65929;49.062;10.338;2023-12-29T04:40:25;8.30;78.50
76996;DHT22;65929;49.062;10.338;2023-12-29T04:41:26;8.30;78.50
76996;DHT22;65929;49.062;10.338;2023-12-29T04:42:27;8.30;78.60
76996;DHT22;65929;49.062;10.338;2023-12-29T04:43:29;8.30;78.60
76996;DHT22;65929;49.062;10.338;2023-12-29T04:44:30;8.30;78.60
76996;DHT22;65929;49.062;10.338;2023-12-29T04:45:31;8.30;78.70
76996;DHT22;65929;49.062;10.338;2023-12-29T04:46:32;8.30;78.80
76996;DHT22;65929;49.062;10.338;2023-12-29T04:47:33;8.30;78.80
76996;DHT22;65929;49.062;10.338;2023-12-29T04:48:33;8.30;79.00
76996;DHT22;65929;49.062;10.338;2023-12-29T04:49:34;8.20;79.00
76996;DHT22;65929;49.062;10.338;2023-12-29T04:50:35;8.20;79.20
76996;DHT22;65929;49.062;10.338;2023-12-29T04:51:36;8.20;79.10
76996;DHT22;65929;49.062;10.338;2023-12-29T04:52:37;8.20;79.30
76996;DHT22;65929;49.062;10.338;2023-12-29T04:53:38;8.20;79.30
76996;DHT22;65929;49.062;10.338;2023-12-29T04:54:40;8.20;79.50
76996;DHT22;65929;49.062;10.338;2023-12-29T04:55:40;8.20;79.50
76996;DHT22;65929;49.062;10.338;2023-12-29T04:56:41;8.20;79.50
76996;DHT22;65929;49.062;10.338;2023-12-29T04:57:42;8.20;79.60
76996;DHT22;65929;49.062;10.338;2023-12-29T04:58:44;8.20;79.60
76996;DHT22;65929;49.062;10.338;2023-12-29T04:59:45;8.20;79.60
76996;DHT22;65929;49.062;10.338;2023-12-29T05:00:46;8.20;79.60
76996;DHT22;65929;49.062;10.338;2023-12-29T05:01:47;8.20;79.70
76996;DHT22;65929;49.062;10.338;2023-12-29T05:02:48;8.20;79.60
76996;DHT22;65929;49.062;10.338;2023-12-29T05:03:49;8.20;79.70
76996;DHT22;65929;49.062;10.338;2023-12-29T05:04:50;8.20;79.80
76996;DHT22;65929;49.062;10.338;2023-12-29T05:05:51;8.20;79.80
76996;DHT22;65929;49.062;10.338;2023-12-29T05:06:52;8.20;79.80
76996;DHT22;65929;49.062;10.338;2023-12-29T05:07:53;8.20;80.00
76996;DHT22;65929;49.062;10.338;2023-12-29T05:08:54;8.20;80.00
76996;DHT22;65929;49.062;10.338;2023-12-29T05:09:54;8.20;80.10
76996;DHT22;65929;49.062;10.338;2023-12-29T05:10:55;8.20;80.20
76996;DHT22;65929;49.062;10.338;2023-12-29T05:11:56;8.20;80.40
76996;DHT22;65929;49.062;10.338;2023-12-29T05:12:57;8.20;80.50
76996;DHT22;65929;49.062;10.338;2023-12-29T05:14:00;8.20;80.30
76996;DHT22;65929;49.062;10.338;2023-12-29T05:15:00;8.20;80.30
76996;DHT22;65929;49.062;10.338;2023-12-29T05:16:01;8.20;80.30
76996;DHT22;65929;49.062;10.338;2023-12-29T05:17:04;8.30;80.40
76996;DHT22;65929;49.062;10.338;2023-12-29T05:18:05;8.30;80.50
76996;DHT22;65929;49.062;10.338;2023-12-29T05:19:06;8.30;80.70
76996;DHT22;65929;49.062;10.338;2023-12-29T05:20:08;8.20;80.60
76996;DHT22;65929;49.062;10.338;2023-12-29T05:21:14;8.30;80.50
76996;DHT22;65929;49.062;10.338;2023-12-29T05:22:15;8.30;80.70
76996;DHT22;65929;49.062;10.338;2023-12-29T05:23:18;8.20;80.70
76996;DHT22;65929;49.062;10.338;2023-12-29T05:24:19;8.20;80.80
76996;DHT22;65929;49.062;10.338;2023-12-29T05:25:20;8.20;81.00
76996;DHT22;65929;49.062;10.338;2023-12-29T05:26:22;8.20;81.10
76996;DHT22;65929;49.062;10.338;2023-12-29T05:27:23;8.20;81.10
76996;DHT22;65929;49.062;10.338;2023-12-29T05:28:24;8.20;81.30
76996;DHT22;65929;49.062;10.338;2023-12-29T05:29:26;8.10;81.20
76996;DHT22;65929;49.062;10.338;2023-12-29T05:30:27;8.10;81.20
76996;DHT22;65929;49.062;10.338;2023-12-29T05:31:32;8.20;80.90
76996;DHT22;65929;49.062;10.338;2023-12-29T05:32:32;8.20;80.90
76996;DHT22;65929;49.062;10.338;2023-12-29T05:33:34;8.20;80.80
76996;DHT22;65929;49.062;10.338;2023-12-29T05:34:35;8.20;80.80
76996;DHT22;65929;49.062;10.338;2023-12-29T05:35:36;8.20;80.80
76996;DHT22;65929;49.062;10.338;2023-12-29T05:36:37;8.30;81.10
76996;DHT22;65929;49.062;10.338;2023-12-29T05:37:38;8.20;81.00
76996;DHT22;65929;49.062;10.338;2023-12-29T05:38:39;8.20;81.20
76996;DHT22;65929;49.062;10.338;2023-12-29T05:39:42;8.20;81.30
76996;DHT22;65929;49.062;10.338;2023-12-29T05:40:43;8.20;81.40
76996;DHT22;65929;49.062;10.338;2023-12-29T05:41:44;8.20;81.40
76996;DHT22;65929;49.062;10.338;2023-12-29T05:42:45;8.20;81.60
76996;DHT22;65929;49.062;10.338;2023-12-29T05:43:46;8.10;81.70
76996;DHT22;65929;49.062;10.338;2023-12-29T05:44:48;8.10;81.60
76996;DHT22;65929;49.062;10.338;2023-12-29T05:45:49;8.10;81.80
76996;DHT22;65929;49.062;10.338;2023-12-29T05:46:50;8.10;81.90
76996;DHT22;65929;49.062;10.338;2023-12-29T05:47:51;8.10;81.80
76996;DHT22;65929;49.062;10.338;2023-12-29T05:48:52;8.10;82.00
76996;DHT22;65929;49.062;10.338;2023-12-29T05:49:54;8.10;82.10
76996;DHT22;65929;49.062;10.338;2023-12-29T05:50:55;8.10;82.00
76996;DHT22;65929;49.062;10.338;2023-12-29T05:51:56;8.10;82.10
76996;DHT22;65929;49.062;10.338;2023-12-29T05:52:56;8.10;82.00
76996;DHT22;65929;49.062;10.338;2023-12-29T05:53:57;8.10;82.10
76996;DHT22;65929;49.062;10.338;2023-12-29T05:54:58;8.10;82.00
76996;DHT22;65929;49.062;10.338;2023-12-29T05:55:59;8.10;82.10
76996;DHT22;65929;49.062;10.338;2023-12-29T05:57:00;8.10;82.00
76996;DHT22;65929;49.062;10.338;2023-12-29T05:58:01;8.20;82.30
76996;DHT22;65929;49.062;10.338;2023-12-29T05:59:02;8.10;82.20
76996;DHT22;65929;49.062;10.338;2023-12-29T06:00:06;8.10;82.10
76996;DHT22;65929;49.062;10.338;2023-12-29T06:01:07;8.10;82.30
76996;DHT22;65929;49.062;10.338;2023-12-29T06:02:08;8.10;82.10
76996;DHT22;65929;49.062;10.338;2023-12-29T06:03:09;8.20;82.20
76996;DHT22;65929;49.062;10.338;2023-12-29T06:04:10;8.10;82.50
76996;DHT22;65929;49.062;10.338;2023-12-29T06:05:11;8.10;82.60
76996;DHT22;65929;49.062;10.338;2023-12-29T06:06:12;8.10;82.70
76996;DHT22;65929;49.062;10.338;2023-12-29T06:07:13;8.10;82.50
76996;DHT22;65929;49.062;10.338;2023-12-29T06:08:14;8.10;82.50
76996;DHT22;65929;49.062;10.338;2023-12-29T06:09:15;8.10;82.50
76996;DHT22;65929;49.062;10.338;2023-12-29T06:10:16;8.10;82.60
76996;DHT22;65929;49.062;10.338;2023-12-29T06:11:17;8.10;82.70
76996;DHT22;65929;49.062;10.338;2023-12-29T06:12:18;8.10;82.80
76996;DHT22;65929;49.062;10.338;2023-12-29T06:13:19;8.10;83.00
76996;DHT22;65929;49.062;10.338;2023-12-29T06:14:20;8.10;83.00
76996;DHT22;65929;49.062;10.338;2023-12-29T06:15:22;8.00;83.10
76996;DHT22;65929;49.062;10.338;2023-12-29T06:16:23;8.00;83.30
76996;DHT22;65929;49.062;10.338;2023-12-29T06:17:26;8.00;83.50
76996;DHT22;65929;49.062;10.338;2023-12-29T06:18:27;8.00;83.60
76996;DHT22;65929;49.062;10.338;2023-12-29T06:19:28;8.00;83.60
76996;DHT22;65929;49.062;10.338;2023-12-29T06:20:29;8.00;83.70
76996;DHT22;65929;49.062;10.338;2023-12-29T06:21:30;8.00;83.60
76996;DHT22;65929;49.062;10.338;2023-12-29T06:22:31;8.00;83.70
76996;DHT22;65929;49.062;10.338;2023-12-29T06:23:32;8.00;83.60
76996;DHT22;65929;49.062;10.338;2023-12-29T06:24:33;8.00;83.80
76996;DHT22;65929;49.062;10.338;2023-12-29T06:25:34;8.00;83.70
76996;DHT22;65929;49.062;10.338;2023-12-29T06:26:35;8.00;83.80
76996;DHT22;65929;49.062;10.338;2023-12-29T06:27:36;8.00;84.00
76996;DHT22;65929;49.062;10.338;2023-12-29T06:28:41;8.00;84.00
76996;DHT22;65929;49.062;10.338;2023-12-29T06:29:43;8.00;84.20
76996;DHT22;65929;49.062;10.338;2023-12-29T06:30:46;8.00;84.40
76996;DHT22;65929;49.062;10.338;2023-12-29T06:31:47;8.00;84.50
76996;DHT22;65929;49.062;10.338;2023-12-29T06:32:48;8.00;84.70
76996;DHT22;65929;49.062;10.338;2023-12-29T06:33:49;7.90;84.80
76996;DHT22;65929;49.062;10.338;2023-12-29T06:34:50;7.90;85.10
76996;DHT22;65929;49.062;10.338;2023-12-29T06:35:51;7.80;85.20
76996;DHT22;65929;49.062;10.338;2023-12-29T06:36:52;7.80;85.40
76996;DHT22;65929;49.062;10.338;2023-12-29T06:37:53;7.80;85.70